createdAt,value
2022-12-23T00:01:16.094Z,98861.75
2022-12-23T00:04:04.198Z,98858.41
2022-12-23T00:06:52.240Z,98868.34
2022-12-23T00:09:42.568Z,98860.84
2022-12-23T00:12:49.526Z,98873.28
2022-12-23T00:15:37.441Z,98874.78
2022-12-23T00:18:25.263Z,98862.69
2022-12-23T00:21:17.470Z,98863.59
2022-12-23T00:24:05.684Z,98867.56
2022-12-23T00:26:53.511Z,98864.66
2022-12-23T00:29:41.563Z,98858.84
2022-12-23T00:32:29.433Z,98851.63
2022-12-23T00:35:17.384Z,98851.94
2022-12-23T00:38:05.408Z,98843.34
2022-12-23T00:41:11.810Z,98843.66
2022-12-23T00:43:59.837Z,98837.97
2022-12-23T00:46:47.824Z,98854.09
2022-12-23T00:49:43.050Z,98840.00
2022-12-23T00:52:31.205Z,98845.03
2022-12-23T00:55:19.667Z,98849.19
2022-12-23T00:58:07.490Z,98851.34
2022-12-23T01:01:13.741Z,98853.47
2022-12-23T01:04:21.245Z,98849.94
2022-12-23T01:07:09.534Z,98853.03
2022-12-23T01:09:57.845Z,98853.31
2022-12-23T01:12:46.184Z,98862.97
2022-12-23T01:15:34.203Z,98857.16
2022-12-23T01:18:25.725Z,98859.63
2022-12-23T01:21:14.138Z,98850.28
2022-12-23T01:24:01.975Z,98861.47
2022-12-23T01:26:49.768Z,98870.00
2022-12-23T01:29:37.650Z,98876.19
2022-12-23T01:32:25.494Z,98879.97
2022-12-23T01:35:13.310Z,98889.22
2022-12-23T01:38:01.406Z,98883.69
2022-12-23T01:40:49.207Z,98900.06
2022-12-23T01:43:51.752Z,98904.22
2022-12-23T01:46:39.856Z,98911.28
2022-12-23T01:49:27.683Z,98916.81
2022-12-23T01:52:15.598Z,98932.25
2022-12-23T01:55:03.994Z,98930.41
2022-12-23T01:57:55.417Z,98931.31
2022-12-23T02:01:02.402Z,98927.81
2022-12-23T02:03:53.909Z,98929.03
2022-12-23T02:07:03.595Z,98930.91
2022-12-23T02:09:51.383Z,98927.81
2022-12-23T02:12:57.056Z,98930.88
2022-12-23T02:16:20.127Z,98940.19
2022-12-23T02:19:53.525Z,98938.50
2022-12-23T02:23:22.966Z,98954.47
2022-12-23T02:26:41.661Z,98951.41
2022-12-23T02:30:26.112Z,98961.38
2022-12-23T02:33:31.996Z,98963.34
2022-12-23T02:36:51.558Z,98969.03
2022-12-23T02:39:58.997Z,98964.13
2022-12-23T02:43:16.061Z,98969.19
2022-12-23T02:46:30.556Z,98978.38
2022-12-23T02:49:30.374Z,98975.94
2022-12-23T02:52:22.287Z,98969.78
2022-12-23T02:55:17.789Z,98967.47
2022-12-23T02:58:13.099Z,98976.53
2022-12-23T03:01:02.227Z,98969.16
2022-12-23T03:03:51.573Z,98977.31
2022-12-23T03:06:46.660Z,98969.94
2022-12-23T03:10:05.223Z,98963.19
2022-12-23T03:13:27.827Z,98972.84
2022-12-23T03:16:33.657Z,98966.84
2022-12-23T03:19:50.260Z,98981.09
2022-12-23T03:23:12.562Z,98987.97
2022-12-23T03:26:31.191Z,98983.38
2022-12-23T03:29:48.597Z,98978.78
2022-12-23T03:32:45.870Z,98979.53
2022-12-23T03:35:50.478Z,98987.06
2022-12-23T03:38:41.415Z,98978.78
2022-12-23T03:41:36.044Z,98984.44
2022-12-23T03:45:10.802Z,99001.41
2022-12-23T03:48:02.620Z,99009.69
2022-12-23T03:50:57.067Z,99007.41
2022-12-23T03:54:00.437Z,99018.16
2022-12-23T03:56:56.864Z,99026.88
2022-12-23T03:59:50.543Z,99028.56
2022-12-23T04:03:03.106Z,99030.72
2022-12-23T04:05:59.844Z,99016.81
2022-12-23T04:08:49.539Z,99024.59
2022-12-23T04:11:37.819Z,99033.34
2022-12-23T04:14:25.696Z,99039.94
2022-12-23T04:17:13.891Z,99055.13
2022-12-23T04:20:02.052Z,99046.25
2022-12-23T04:22:50.116Z,99060.22
2022-12-23T04:25:38.049Z,99048.09
2022-12-23T04:28:25.873Z,99045.00
2022-12-23T04:31:13.965Z,99045.91
2022-12-23T04:34:01.911Z,99043.44
2022-12-23T04:36:49.680Z,99044.81
2022-12-23T04:39:37.607Z,99047.38
2022-12-23T04:42:25.903Z,99050.97
2022-12-23T04:45:13.846Z,99047.00
2022-12-23T04:48:01.737Z,99043.47
2022-12-23T04:50:49.790Z,99054.94
2022-12-23T04:53:38.202Z,99064.59
2022-12-23T04:56:29.149Z,99063.19
2022-12-23T04:59:23.786Z,99050.72
2022-12-23T05:02:12.183Z,99045.81
2022-12-23T05:05:00.650Z,99034.59
2022-12-23T05:07:52.677Z,99067.59
2022-12-23T05:10:41.973Z,99068.81
2022-12-23T05:13:29.784Z,99065.59
2022-12-23T05:16:22.517Z,99055.22
2022-12-23T05:19:11.173Z,99051.09
2022-12-23T05:21:58.947Z,99047.31
2022-12-23T05:24:47.205Z,99075.53
2022-12-23T05:27:38.068Z,99083.34
2022-12-23T05:30:29.059Z,99076.75
2022-12-23T05:33:17.084Z,99066.63
2022-12-23T05:36:06.411Z,99087.78
2022-12-23T05:38:57.961Z,99076.56
2022-12-23T05:41:46.398Z,99074.25
2022-12-23T05:44:34.538Z,99082.97
2022-12-23T05:47:22.458Z,99092.03
2022-12-23T05:50:13.845Z,99087.84
2022-12-23T05:53:01.735Z,99087.06
2022-12-23T05:55:49.771Z,99091.25
2022-12-23T05:58:37.997Z,99102.41
2022-12-23T06:01:26.082Z,99107.16
2022-12-23T06:04:14.212Z,99102.09
2022-12-23T06:07:02.206Z,99102.88
2022-12-23T06:09:51.331Z,99101.38
2022-12-23T06:12:39.613Z,99099.41
2022-12-23T06:15:27.881Z,99099.34
2022-12-23T06:18:15.856Z,99107.59
2022-12-23T06:21:04.334Z,99100.03
2022-12-23T06:23:55.336Z,99094.44
2022-12-23T06:26:43.769Z,99103.31
2022-12-23T06:29:32.329Z,99096.63
2022-12-23T06:32:21.011Z,99108.72
2022-12-23T06:35:10.162Z,99114.72
2022-12-23T06:37:58.466Z,99118.00
2022-12-23T06:40:46.545Z,99131.56
2022-12-23T06:43:34.641Z,99124.06
2022-12-23T06:46:22.887Z,99134.44
2022-12-23T06:49:13.665Z,99115.91
2022-12-23T06:52:01.953Z,99124.63
2022-12-23T06:54:50.510Z,99126.16
2022-12-23T06:57:38.643Z,99134.22
2022-12-23T07:00:29.769Z,99145.69
2022-12-23T07:03:18.302Z,99140.97
2022-12-23T07:06:06.702Z,99133.91
2022-12-23T07:08:58.272Z,99132.75
2022-12-23T07:11:49.370Z,99108.53
2022-12-23T07:14:37.471Z,99116.63
2022-12-23T07:17:25.451Z,99115.53
2022-12-23T07:20:14.900Z,99103.63
2022-12-23T07:23:05.090Z,99115.31
2022-12-23T07:25:53.123Z,99117.41
2022-12-23T07:28:43.398Z,99118.63
2022-12-23T07:31:31.949Z,99126.13
2022-12-23T07:34:19.921Z,99125.03
2022-12-23T07:37:08.045Z,99128.91
2022-12-23T07:39:55.994Z,99122.97
2022-12-23T07:42:46.043Z,99131.16
2022-12-23T07:45:35.239Z,99137.75
2022-12-23T07:48:23.229Z,99145.44
2022-12-23T07:51:11.480Z,99155.59
2022-12-23T07:54:02.723Z,99161.19
2022-12-23T07:56:51.040Z,99157.28
2022-12-23T07:59:41.591Z,99165.13
2022-12-23T08:02:34.130Z,99158.13
2022-12-23T08:05:23.002Z,99163.84
2022-12-23T08:08:11.220Z,99169.75
2022-12-23T08:11:02.613Z,99169.81
2022-12-23T08:13:52.868Z,99149.34
2022-12-23T08:16:43.996Z,99157.31
2022-12-23T08:19:32.614Z,99138.00
2022-12-23T08:22:23.742Z,99137.84
2022-12-23T08:25:11.917Z,99150.03
2022-12-23T08:28:00.200Z,99150.69
2022-12-23T08:30:48.345Z,99151.81
2022-12-23T08:33:40.944Z,99146.97
2022-12-23T08:36:46.181Z,99166.03
2022-12-23T08:39:34.387Z,99158.28
2022-12-23T08:42:25.203Z,99156.78
2022-12-23T08:45:28.539Z,99158.50
2022-12-23T08:48:23.170Z,99147.25
2022-12-23T08:51:21.449Z,99136.94
2022-12-23T08:54:16.257Z,99141.84
2022-12-23T08:57:43.173Z,99126.28
2022-12-23T09:00:47.369Z,99149.16
2022-12-23T09:03:45.215Z,99150.69
2022-12-23T09:06:45.964Z,99147.41
2022-12-23T09:09:42.236Z,99144.94
2022-12-23T09:12:39.067Z,99143.38
2022-12-23T09:19:18.268Z,99156.34
2022-12-23T09:22:53.412Z,99157.06
2022-12-23T09:25:50.564Z,99172.75
2022-12-23T09:28:50.184Z,99168.38
2022-12-23T09:31:49.883Z,99165.88
2022-12-23T09:34:38.847Z,99147.94
2022-12-23T09:37:48.294Z,99155.59
2022-12-23T09:41:00.780Z,99144.16
2022-12-23T09:44:43.273Z,99131.69
2022-12-23T09:47:48.657Z,99137.09
2022-12-23T09:50:43.184Z,99140.03
2022-12-23T09:54:30.686Z,99142.13
2022-12-23T09:58:55.618Z,99134.13
2022-12-23T10:06:07.024Z,99154.81
2022-12-23T10:09:23.714Z,99122.88
2022-12-23T10:12:46.920Z,99136.78
2022-12-23T10:16:04.904Z,99110.03
2022-12-23T10:19:10.376Z,99117.09
2022-12-23T10:22:47.010Z,99133.03
2022-12-23T10:25:49.769Z,99105.88
2022-12-23T10:33:20.564Z,99116.53
2022-12-23T10:37:19.878Z,99114.44
2022-12-23T10:40:38.615Z,99112.34
2022-12-23T10:43:54.527Z,99082.50
2022-12-23T10:47:25.635Z,99096.53
2022-12-23T10:50:57.954Z,99093.31
2022-12-23T10:54:14.242Z,99089.03
2022-12-23T10:57:29.549Z,99079.34
2022-12-23T11:00:27.725Z,99080.88
2022-12-23T11:03:29.193Z,99064.47
2022-12-23T11:06:36.590Z,99045.44
2022-12-23T11:12:49.898Z,99048.16
2022-12-23T11:15:46.834Z,99060.00
2022-12-23T11:18:55.772Z,99042.81
2022-12-23T11:22:00.627Z,99032.97
2022-12-23T11:24:50.956Z,99027.91
2022-12-23T11:27:44.363Z,99011.81
2022-12-23T11:30:53.488Z,99011.19
2022-12-23T11:33:59.521Z,98995.56
2022-12-23T11:37:03.664Z,99008.59
2022-12-23T11:39:55.682Z,98997.38
2022-12-23T11:42:43.768Z,98980.81
2022-12-23T11:45:37.227Z,98981.72
2022-12-23T11:48:31.520Z,98968.84
2022-12-23T11:51:25.983Z,98966.56
2022-12-23T11:54:20.451Z,98973.44
2022-12-23T11:57:17.851Z,98962.09
2022-12-23T12:00:17.405Z,98964.09
2022-12-23T12:03:07.694Z,98942.75
2022-12-23T12:06:03.954Z,98937.84
2022-12-23T12:08:54.382Z,98925.28
2022-12-23T12:11:58.381Z,98927.69
2022-12-23T12:14:46.553Z,98929.72
2022-12-23T12:17:45.367Z,98919.41
2022-12-23T12:20:53.257Z,98903.44
2022-12-23T12:24:19.540Z,98903.44
2022-12-23T12:27:10.740Z,98916.50
2022-12-23T12:30:08.096Z,98912.66
2022-12-23T12:33:38.468Z,98900.25
2022-12-23T12:36:49.724Z,98909.13
2022-12-23T12:40:07.563Z,98910.38
2022-12-23T12:43:21.106Z,98900.09
2022-12-23T12:46:35.157Z,98893.81
2022-12-23T12:50:00.961Z,98888.72
2022-12-23T12:52:52.880Z,98885.75
2022-12-23T12:55:46.377Z,98871.06
2022-12-23T12:58:34.376Z,98864.00
2022-12-23T13:01:46.267Z,98851.34
2022-12-23T13:05:17.417Z,98835.19
2022-12-23T13:08:43.380Z,98838.22
2022-12-23T13:11:55.483Z,98828.88
2022-12-23T13:15:37.998Z,98815.19
2022-12-23T13:19:13.207Z,98816.56
2022-12-23T13:22:14.937Z,98803.94
2022-12-23T13:25:24.036Z,98790.66
2022-12-23T13:28:32.652Z,98782.16
2022-12-23T13:31:20.424Z,98772.88
2022-12-23T13:34:46.594Z,98784.16
2022-12-23T13:37:52.968Z,98771.91
2022-12-23T13:41:04.573Z,98768.75
2022-12-23T13:44:02.896Z,98766.75
2022-12-23T13:47:24.477Z,98751.13
2022-12-23T13:50:27.104Z,98747.41
2022-12-23T13:53:48.366Z,98760.75
2022-12-23T13:56:47.245Z,98763.72
2022-12-23T13:59:44.892Z,98746.16
2022-12-23T14:02:35.958Z,98755.94
2022-12-23T14:05:50.893Z,98745.81
2022-12-23T14:08:47.611Z,98752.09
2022-12-23T14:11:36.888Z,98738.13
2022-12-23T14:14:25.907Z,98744.16
2022-12-23T14:17:30.650Z,98729.78
2022-12-23T14:21:12.219Z,98730.28
2022-12-23T14:24:35.638Z,98712.88
2022-12-23T14:27:42.946Z,98708.50
2022-12-23T14:30:45.752Z,98697.72
2022-12-23T14:33:38.350Z,98704.22
2022-12-23T14:36:27.086Z,98696.00
2022-12-23T14:39:15.024Z,98696.00
2022-12-23T14:42:06.778Z,98673.75
2022-12-23T14:45:30.557Z,98667.34
2022-12-23T14:49:22.549Z,98666.47
2022-12-23T14:52:39.349Z,98676.41
2022-12-23T14:55:31.562Z,98674.13
2022-12-23T14:58:36.881Z,98668.94
2022-12-23T15:02:00.497Z,98674.16
2022-12-23T15:04:55.065Z,98684.09
2022-12-23T15:07:46.659Z,98695.13
2022-12-23T15:10:36.809Z,98702.28
2022-12-23T15:13:29.318Z,98687.25
2022-12-23T15:16:19.093Z,98680.34
2022-12-23T15:19:24.878Z,98667.16
2022-12-23T15:22:22.146Z,98672.19
2022-12-23T15:25:38.655Z,98680.28
2022-12-23T15:28:38.965Z,98683.66
2022-12-23T15:31:33.607Z,98682.13
2022-12-23T15:34:27.797Z,98677.06
2022-12-23T15:37:27.576Z,98687.63
2022-12-23T15:40:32.008Z,98674.44
2022-12-23T15:43:32.192Z,98685.03
2022-12-23T15:46:29.704Z,98677.66
2022-12-23T15:49:21.820Z,98686.19
2022-12-23T15:52:18.082Z,98678.63
2022-12-23T15:55:19.854Z,98686.09
2022-12-23T15:58:08.495Z,98686.97
2022-12-23T16:00:59.336Z,98670.38
2022-12-23T16:03:57.603Z,98674.84
2022-12-23T16:06:50.875Z,98655.84
2022-12-23T16:09:38.867Z,98666.06
2022-12-23T16:12:28.048Z,98668.06
2022-12-23T16:15:32.330Z,98664.44
2022-12-23T16:18:25.742Z,98650.91
2022-12-23T16:21:14.900Z,98647.00
2022-12-23T16:24:08.785Z,98651.78
2022-12-23T16:26:56.829Z,98648.53
2022-12-23T16:29:48.558Z,98654.94
2022-12-23T16:32:48.831Z,98665.41
2022-12-23T16:35:42.785Z,98659.16
2022-12-23T16:38:31.145Z,98661.13
2022-12-23T16:41:20.177Z,98664.59
2022-12-23T16:44:08.327Z,98680.91
2022-12-23T16:46:56.390Z,98671.66
2022-12-23T16:49:44.326Z,98664.69
2022-12-23T16:52:32.641Z,98666.41
2022-12-23T16:55:20.936Z,98642.78
2022-12-23T16:58:08.873Z,98664.81
2022-12-23T17:00:57.107Z,98670.84
2022-12-23T17:03:44.981Z,98660.34
2022-12-23T17:06:33.862Z,98672.97
2022-12-23T17:09:21.874Z,98677.78
2022-12-23T17:12:10.524Z,98698.00
2022-12-23T17:14:58.822Z,98686.44
2022-12-23T17:17:49.025Z,98693.56
2022-12-23T17:20:36.953Z,98699.19
2022-12-23T17:23:32.915Z,98659.19
2022-12-23T17:26:20.800Z,98658.34
2022-12-23T17:29:11.875Z,98665.88
2022-12-23T17:31:59.873Z,98683.25
2022-12-23T17:34:48.665Z,98678.66
2022-12-23T17:37:40.889Z,98683.91
2022-12-23T17:40:29.965Z,98694.69
2022-12-23T17:43:19.027Z,98699.16
2022-12-23T17:46:13.469Z,98701.75
2022-12-23T17:49:01.423Z,98699.75
2022-12-23T17:51:49.445Z,98694.22
2022-12-23T17:54:37.299Z,98692.66
2022-12-23T17:57:27.209Z,98697.75
2022-12-23T18:00:22.668Z,98691.94
2022-12-23T18:03:24.103Z,98700.41
2022-12-23T18:06:21.731Z,98711.66
2022-12-23T18:09:10.235Z,98697.78
2022-12-23T18:11:58.869Z,98713.25
2022-12-23T18:14:47.115Z,98716.97
2022-12-23T18:17:35.259Z,98717.44
2022-12-23T18:20:24.148Z,98713.31
2022-12-23T18:23:17.367Z,98728.84
2022-12-23T18:26:07.102Z,98733.44
2022-12-23T18:29:01.064Z,98724.09
2022-12-23T18:31:52.247Z,98719.03
2022-12-23T18:34:40.599Z,98727.03
2022-12-23T18:37:29.122Z,98735.97
2022-12-23T18:40:17.843Z,98731.50
2022-12-23T18:43:06.566Z,98726.16
2022-12-23T18:45:55.662Z,98732.50
2022-12-23T18:48:43.979Z,98736.97
2022-12-23T18:51:37.806Z,98741.56
2022-12-23T18:54:25.735Z,98746.53
2022-12-23T18:57:13.957Z,98754.97
2022-12-23T19:00:02.236Z,98767.13
2022-12-23T19:02:53.066Z,98760.84
2022-12-23T19:05:43.301Z,98768.38
2022-12-23T19:08:31.587Z,98772.22
2022-12-23T19:11:20.905Z,98781.72
2022-12-23T19:14:11.272Z,98780.66
2022-12-23T19:17:00.362Z,98790.03
2022-12-23T19:19:48.359Z,98783.72
2022-12-23T19:22:39.217Z,98789.06
2022-12-23T19:25:30.209Z,98793.16
2022-12-23T19:28:18.479Z,98786.81
2022-12-23T19:31:11.736Z,98790.53
2022-12-23T19:34:00.614Z,98811.03
2022-12-23T19:36:48.775Z,98829.16
2022-12-23T19:39:59.547Z,98819.66
2022-12-23T19:42:50.548Z,98819.03
2022-12-23T19:46:12.933Z,98831.47
2022-12-23T19:48:59.791Z,98828.28
2022-12-23T19:51:48.627Z,98835.78
2022-12-23T19:55:06.817Z,98825.13
2022-12-23T19:57:54.853Z,98843.91
2022-12-23T20:00:43.095Z,98846.13
2022-12-23T20:03:31.370Z,98847.00
2022-12-23T20:06:31.195Z,98833.56
2022-12-23T20:10:23.058Z,98836.66
2022-12-23T20:12:33.658Z,98853.81
2022-12-23T20:15:22.413Z,98865.69
2022-12-23T20:18:10.502Z,98859.50
2022-12-23T20:21:04.648Z,98873.31
2022-12-23T20:24:19.217Z,98864.88
2022-12-23T20:27:14.815Z,98864.34
2022-12-23T20:34:19.501Z,98890.25
2022-12-23T20:37:20.195Z,98898.09
2022-12-23T20:40:36.669Z,98904.81
2022-12-23T20:43:38.916Z,98915.34
2022-12-23T20:46:27.227Z,98916.00
2022-12-23T20:49:20.448Z,98906.78
2022-12-23T20:52:15.933Z,98915.34
2022-12-23T20:55:12.277Z,98910.31
2022-12-23T20:58:23.535Z,98913.25
2022-12-23T21:01:18.226Z,98921.03
2022-12-23T21:04:21.419Z,98934.03
2022-12-23T21:07:14.062Z,98924.13
2022-12-23T21:10:15.743Z,98913.63
2022-12-23T21:13:20.460Z,98928.63
2022-12-23T21:16:59.562Z,98928.59
2022-12-23T21:19:58.317Z,98942.50
2022-12-23T21:22:48.835Z,98941.16
2022-12-23T21:25:37.465Z,98948.03
2022-12-23T21:28:34.471Z,98943.72
2022-12-23T21:31:36.731Z,98942.16
2022-12-23T21:35:06.164Z,98951.78
2022-12-23T21:38:32.441Z,98937.22
2022-12-23T21:45:51.141Z,98945.66
2022-12-23T21:55:51.093Z,98941.31
